sensor_id;sensor_type;location;lat;lon;timestamp;P1;durP1;ratioP1;P2;durP2;ratioP2
75148;SDS011;63724;47.470;19.166;2023-03-31T00:02:02;15.70;;;8.67;;
75148;SDS011;63724;47.470;19.166;2023-03-31T00:05:14;12.23;;;7.03;;
75148;SDS011;63724;47.470;19.166;2023-03-31T00:08:19;12.30;;;6.40;;
75148;SDS011;63724;47.470;19.166;2023-03-31T00:11:22;11.65;;;6.28;;
75148;SDS011;63724;47.470;19.166;2023-03-31T00:14:24;10.55;;;6.28;;
75148;SDS011;63724;47.470;19.166;2023-03-31T00:17:28;9.73;;;6.60;;
75148;SDS011;63724;47.470;19.166;2023-03-31T00:20:35;10.40;;;6.27;;
75148;SDS011;63724;47.470;19.166;2023-03-31T00:23:42;15.30;;;6.90;;
75148;SDS011;63724;47.470;19.166;2023-03-31T00:26:44;10.43;;;6.82;;
75148;SDS011;63724;47.470;19.166;2023-03-31T00:29:46;11.20;;;7.30;;
75148;SDS011;63724;47.470;19.166;2023-03-31T00:32:51;13.60;;;7.23;;
75148;SDS011;63724;47.470;19.166;2023-03-31T00:35:54;13.90;;;7.57;;
75148;SDS011;63724;47.470;19.166;2023-03-31T00:38:58;10.77;;;6.72;;
75148;SDS011;63724;47.470;19.166;2023-03-31T00:42:10;9.88;;;5.25;;
75148;SDS011;63724;47.470;19.166;2023-03-31T00:45:20;9.05;;;5.63;;
75148;SDS011;63724;47.470;19.166;2023-03-31T00:48:25;7.53;;;5.03;;
75148;SDS011;63724;47.470;19.166;2023-03-31T00:51:29;11.63;;;5.70;;
75148;SDS011;63724;47.470;19.166;2023-03-31T00:54:33;7.63;;;5.35;;
75148;SDS011;63724;47.470;19.166;2023-03-31T00:57:37;11.40;;;6.63;;
75148;SDS011;63724;47.470;19.166;2023-03-31T01:00:41;8.85;;;5.82;;
75148;SDS011;63724;47.470;19.166;2023-03-31T01:03:43;9.90;;;5.30;;
75148;SDS011;63724;47.470;19.166;2023-03-31T01:06:53;12.90;;;6.43;;
75148;SDS011;63724;47.470;19.166;2023-03-31T01:10:02;9.35;;;6.28;;
75148;SDS011;63724;47.470;19.166;2023-03-31T01:13:09;14.93;;;7.78;;
75148;SDS011;63724;47.470;19.166;2023-03-31T01:16:12;13.50;;;7.57;;
75148;SDS011;63724;47.470;19.166;2023-03-31T01:19:19;13.17;;;8.47;;
75148;SDS011;63724;47.470;19.166;2023-03-31T01:22:41;16.27;;;8.63;;
75148;SDS011;63724;47.470;19.166;2023-03-31T01:36:25;13.93;;;7.80;;
75148;SDS011;63724;47.470;19.166;2023-03-31T01:42:50;11.65;;;7.63;;
75148;SDS011;63724;47.470;19.166;2023-03-31T01:46:19;13.50;;;7.07;;
75148;SDS011;63724;47.470;19.166;2023-03-31T01:49:40;14.93;;;6.97;;
75148;SDS011;63724;47.470;19.166;2023-03-31T01:52:48;12.03;;;7.60;;
75148;SDS011;63724;47.470;19.166;2023-03-31T01:56:07;11.93;;;7.47;;
75148;SDS011;63724;47.470;19.166;2023-03-31T01:59:25;11.15;;;7.30;;
75148;SDS011;63724;47.470;19.166;2023-03-31T02:02:31;9.57;;;6.60;;
75148;SDS011;63724;47.470;19.166;2023-03-31T02:05:43;10.35;;;7.43;;
75148;SDS011;63724;47.470;19.166;2023-03-31T02:08:50;12.57;;;7.70;;
75148;SDS011;63724;47.470;19.166;2023-03-31T02:11:58;12.33;;;7.00;;
75148;SDS011;63724;47.470;19.166;2023-03-31T02:15:02;12.07;;;6.75;;
75148;SDS011;63724;47.470;19.166;2023-03-31T02:18:08;11.68;;;7.18;;
75148;SDS011;63724;47.470;19.166;2023-03-31T02:21:13;13.13;;;6.82;;
75148;SDS011;63724;47.470;19.166;2023-03-31T02:24:18;7.93;;;5.60;;
75148;SDS011;63724;47.470;19.166;2023-03-31T02:27:32;12.80;;;7.03;;
75148;SDS011;63724;47.470;19.166;2023-03-31T02:33:46;8.18;;;6.85;;
75148;SDS011;63724;47.470;19.166;2023-03-31T02:36:49;12.32;;;6.65;;
75148;SDS011;63724;47.470;19.166;2023-03-31T02:39:52;10.43;;;7.07;;
75148;SDS011;63724;47.470;19.166;2023-03-31T02:42:56;8.77;;;6.53;;
75148;SDS011;63724;47.470;19.166;2023-03-31T02:45:59;11.00;;;7.45;;
75148;SDS011;63724;47.470;19.166;2023-03-31T02:49:05;10.07;;;7.15;;
75148;SDS011;63724;47.470;19.166;2023-03-31T02:55:36;13.73;;;7.27;;
75148;SDS011;63724;47.470;19.166;2023-03-31T03:02:22;9.35;;;6.40;;
75148;SDS011;63724;47.470;19.166;2023-03-31T03:09:00;10.13;;;4.20;;
75148;SDS011;63724;47.470;19.166;2023-03-31T03:15:29;7.03;;;3.70;;
75148;SDS011;63724;47.470;19.166;2023-03-31T03:18:32;6.53;;;3.10;;
75148;SDS011;63724;47.470;19.166;2023-03-31T03:21:35;6.75;;;3.35;;
75148;SDS011;63724;47.470;19.166;2023-03-31T03:24:37;6.68;;;3.17;;
75148;SDS011;63724;47.470;19.166;2023-03-31T03:27:40;5.40;;;3.37;;
75148;SDS011;63724;47.470;19.166;2023-03-31T03:30:43;8.30;;;3.50;;
75148;SDS011;63724;47.470;19.166;2023-03-31T03:33:45;5.13;;;3.10;;
75148;SDS011;63724;47.470;19.166;2023-03-31T03:36:48;4.05;;;3.10;;
75148;SDS011;63724;47.470;19.166;2023-03-31T03:39:50;4.93;;;3.38;;
75148;SDS011;63724;47.470;19.166;2023-03-31T03:42:53;6.63;;;3.07;;
75148;SDS011;63724;47.470;19.166;2023-03-31T03:45:55;4.87;;;3.07;;
75148;SDS011;63724;47.470;19.166;2023-03-31T03:48:58;5.30;;;2.75;;
75148;SDS011;63724;47.470;19.166;2023-03-31T03:52:01;11.95;;;3.83;;
75148;SDS011;63724;47.470;19.166;2023-03-31T03:55:04;4.78;;;2.28;;
75148;SDS011;63724;47.470;19.166;2023-03-31T03:58:07;4.17;;;2.43;;
75148;SDS011;63724;47.470;19.166;2023-03-31T04:01:10;4.00;;;2.23;;
75148;SDS011;63724;47.470;19.166;2023-03-31T04:04:12;5.32;;;2.50;;
75148;SDS011;63724;47.470;19.166;2023-03-31T04:07:15;4.78;;;2.65;;
75148;SDS011;63724;47.470;19.166;2023-03-31T04:10:18;5.20;;;2.10;;
75148;SDS011;63724;47.470;19.166;2023-03-31T04:13:20;3.73;;;2.40;;
75148;SDS011;63724;47.470;19.166;2023-03-31T04:16:23;4.53;;;2.50;;
75148;SDS011;63724;47.470;19.166;2023-03-31T04:19:26;6.25;;;3.47;;
75148;SDS011;63724;47.470;19.166;2023-03-31T04:22:28;6.70;;;4.05;;
75148;SDS011;63724;47.470;19.166;2023-03-31T04:25:35;6.25;;;4.50;;
75148;SDS011;63724;47.470;19.166;2023-03-31T04:28:39;6.27;;;4.30;;
75148;SDS011;63724;47.470;19.166;2023-03-31T04:31:43;12.47;;;5.10;;
75148;SDS011;63724;47.470;19.166;2023-03-31T04:34:46;6.43;;;4.72;;
75148;SDS011;63724;47.470;19.166;2023-03-31T04:37:52;8.63;;;5.00;;
75148;SDS011;63724;47.470;19.166;2023-03-31T04:41:00;8.73;;;6.00;;
75148;SDS011;63724;47.470;19.166;2023-03-31T04:44:02;10.80;;;6.07;;
75148;SDS011;63724;47.470;19.166;2023-03-31T04:47:05;12.87;;;6.43;;
75148;SDS011;63724;47.470;19.166;2023-03-31T04:50:08;8.10;;;5.63;;
75148;SDS011;63724;47.470;19.166;2023-03-31T04:53:17;7.80;;;5.65;;
75148;SDS011;63724;47.470;19.166;2023-03-31T04:56:20;14.73;;;5.30;;
75148;SDS011;63724;47.470;19.166;2023-03-31T04:59:23;8.53;;;5.60;;
75148;SDS011;63724;47.470;19.166;2023-03-31T05:02:26;9.37;;;5.10;;
75148;SDS011;63724;47.470;19.166;2023-03-31T05:05:28;9.05;;;4.45;;
75148;SDS011;63724;47.470;19.166;2023-03-31T05:08:31;8.05;;;4.22;;
75148;SDS011;63724;47.470;19.166;2023-03-31T05:11:35;7.78;;;4.50;;
75148;SDS011;63724;47.470;19.166;2023-03-31T05:14:40;6.57;;;4.57;;
75148;SDS011;63724;47.470;19.166;2023-03-31T05:17:42;9.03;;;4.53;;
75148;SDS011;63724;47.470;19.166;2023-03-31T05:20:45;11.85;;;4.50;;
75148;SDS011;63724;47.470;19.166;2023-03-31T05:23:48;7.53;;;5.35;;
75148;SDS011;63724;47.470;19.166;2023-03-31T05:26:51;9.50;;;5.88;;
75148;SDS011;63724;47.470;19.166;2023-03-31T05:29:53;14.40;;;7.97;;
75148;SDS011;63724;47.470;19.166;2023-03-31T05:32:56;9.80;;;6.57;;
75148;SDS011;63724;47.470;19.166;2023-03-31T05:35:59;10.40;;;5.68;;
75148;SDS011;63724;47.470;19.166;2023-03-31T05:39:03;14.90;;;7.25;;
75148;SDS011;63724;47.470;19.166;2023-03-31T05:42:06;16.50;;;6.90;;
75148;SDS011;63724;47.470;19.166;2023-03-31T05:45:08;13.23;;;6.50;;
75148;SDS011;63724;47.470;19.166;2023-03-31T05:48:11;13.53;;;7.43;;
75148;SDS011;63724;47.470;19.166;2023-03-31T05:51:14;10.45;;;5.88;;
75148;SDS011;63724;47.470;19.166;2023-03-31T05:54:16;9.50;;;5.90;;
75148;SDS011;63724;47.470;19.166;2023-03-31T05:57:18;12.43;;;6.10;;
75148;SDS011;63724;47.470;19.166;2023-03-31T06:00:21;7.57;;;5.63;;
75148;SDS011;63724;47.470;19.166;2023-03-31T06:03:23;9.67;;;5.50;;
75148;SDS011;63724;47.470;19.166;2023-03-31T06:06:26;8.25;;;6.07;;
75148;SDS011;63724;47.470;19.166;2023-03-31T06:09:28;10.63;;;5.63;;
75148;SDS011;63724;47.470;19.166;2023-03-31T06:12:32;10.30;;;4.15;;
75148;SDS011;63724;47.470;19.166;2023-03-31T06:15:35;12.53;;;5.63;;
75148;SDS011;63724;47.470;19.166;2023-03-31T06:18:38;12.60;;;4.87;;
75148;SDS011;63724;47.470;19.166;2023-03-31T06:21:41;7.97;;;4.45;;
75148;SDS011;63724;47.470;19.166;2023-03-31T06:24:52;8.27;;;4.80;;
75148;SDS011;63724;47.470;19.166;2023-03-31T06:27:55;11.02;;;4.93;;
75148;SDS011;63724;47.470;19.166;2023-03-31T06:31:01;9.87;;;4.80;;
75148;SDS011;63724;47.470;19.166;2023-03-31T06:34:11;7.70;;;4.83;;
75148;SDS011;63724;47.470;19.166;2023-03-31T06:37:14;11.73;;;4.53;;
75148;SDS011;63724;47.470;19.166;2023-03-31T06:40:16;6.30;;;4.35;;
75148;SDS011;63724;47.470;19.166;2023-03-31T06:43:19;9.45;;;5.22;;
75148;SDS011;63724;47.470;19.166;2023-03-31T06:46:23;6.47;;;4.20;;
75148;SDS011;63724;47.470;19.166;2023-03-31T06:53:54;8.68;;;4.70;;
75148;SDS011;63724;47.470;19.166;2023-03-31T06:56:57;9.88;;;4.13;;
75148;SDS011;63724;47.470;19.166;2023-03-31T07:00:00;7.80;;;4.90;;
75148;SDS011;63724;47.470;19.166;2023-03-31T07:03:02;8.43;;;5.27;;
75148;SDS011;63724;47.470;19.166;2023-03-31T07:06:05;7.00;;;4.07;;
75148;SDS011;63724;47.470;19.166;2023-03-31T07:09:08;9.35;;;5.18;;
75148;SDS011;63724;47.470;19.166;2023-03-31T07:12:10;9.98;;;4.18;;
75148;SDS011;63724;47.470;19.166;2023-03-31T07:15:13;7.18;;;4.47;;
75148;SDS011;63724;47.470;19.166;2023-03-31T07:18:16;9.57;;;5.10;;
75148;SDS011;63724;47.470;19.166;2023-03-31T07:21:20;7.20;;;3.83;;
75148;SDS011;63724;47.470;19.166;2023-03-31T07:24:22;9.15;;;4.15;;
75148;SDS011;63724;47.470;19.166;2023-03-31T07:27:26;10.80;;;4.18;;
75148;SDS011;63724;47.470;19.166;2023-03-31T07:30:29;8.50;;;4.20;;
75148;SDS011;63724;47.470;19.166;2023-03-31T07:33:31;7.37;;;4.40;;
75148;SDS011;63724;47.470;19.166;2023-03-31T07:36:34;8.50;;;4.67;;
75148;SDS011;63724;47.470;19.166;2023-03-31T07:39:36;5.50;;;4.20;;
75148;SDS011;63724;47.470;19.166;2023-03-31T07:42:42;7.25;;;4.32;;
75148;SDS011;63724;47.470;19.166;2023-03-31T07:45:48;6.45;;;4.82;;
75148;SDS011;63724;47.470;19.166;2023-03-31T07:48:51;10.87;;;7.60;;
75148;SDS011;63724;47.470;19.166;2023-03-31T07:51:55;7.97;;;4.87;;
75148;SDS011;63724;47.470;19.166;2023-03-31T07:54:58;7.45;;;4.65;;
75148;SDS011;63724;47.470;19.166;2023-03-31T07:58:00;8.57;;;5.47;;
75148;SDS011;63724;47.470;19.166;2023-03-31T08:01:03;9.90;;;4.70;;
75148;SDS011;63724;47.470;19.166;2023-03-31T08:04:06;5.90;;;4.03;;
75148;SDS011;63724;47.470;19.166;2023-03-31T08:07:11;7.37;;;3.37;;
75148;SDS011;63724;47.470;19.166;2023-03-31T08:10:16;5.60;;;3.30;;
75148;SDS011;63724;47.470;19.166;2023-03-31T08:13:21;7.57;;;3.97;;
75148;SDS011;63724;47.470;19.166;2023-03-31T08:16:26;8.52;;;5.65;;
75148;SDS011;63724;47.470;19.166;2023-03-31T08:19:28;5.77;;;3.40;;
75148;SDS011;63724;47.470;19.166;2023-03-31T08:22:31;12.13;;;3.60;;
75148;SDS011;63724;47.470;19.166;2023-03-31T08:25:33;5.43;;;3.15;;
75148;SDS011;63724;47.470;19.166;2023-03-31T08:28:36;6.32;;;3.00;;
75148;SDS011;63724;47.470;19.166;2023-03-31T08:31:39;6.35;;;2.67;;
75148;SDS011;63724;47.470;19.166;2023-03-31T08:34:41;6.27;;;2.80;;
75148;SDS011;63724;47.470;19.166;2023-03-31T08:37:43;6.27;;;3.27;;
75148;SDS011;63724;47.470;19.166;2023-03-31T08:40:46;7.15;;;2.97;;
75148;SDS011;63724;47.470;19.166;2023-03-31T08:43:48;6.63;;;2.95;;
75148;SDS011;63724;47.470;19.166;2023-03-31T08:46:51;6.65;;;3.08;;
75148;SDS011;63724;47.470;19.166;2023-03-31T08:49:57;3.87;;;2.67;;
75148;SDS011;63724;47.470;19.166;2023-03-31T08:56:08;5.95;;;2.80;;
75148;SDS011;63724;47.470;19.166;2023-03-31T09:04:16;5.93;;;2.40;;
75148;SDS011;63724;47.470;19.166;2023-03-31T09:07:24;4.87;;;2.33;;
75148;SDS011;63724;47.470;19.166;2023-03-31T09:10:42;3.97;;;2.03;;
75148;SDS011;63724;47.470;19.166;2023-03-31T09:17:20;5.13;;;2.50;;
75148;SDS011;63724;47.470;19.166;2023-03-31T09:20:34;5.80;;;3.08;;
75148;SDS011;63724;47.470;19.166;2023-03-31T09:44:36;11.07;;;2.03;;
75148;SDS011;63724;47.470;19.166;2023-03-31T09:47:54;8.73;;;2.10;;
75148;SDS011;63724;47.470;19.166;2023-03-31T09:51:25;4.97;;;1.73;;
75148;SDS011;63724;47.470;19.166;2023-03-31T09:54:40;3.88;;;1.70;;
75148;SDS011;63724;47.470;19.166;2023-03-31T09:57:46;3.90;;;2.30;;
75148;SDS011;63724;47.470;19.166;2023-03-31T10:00:56;4.75;;;2.33;;
75148;SDS011;63724;47.470;19.166;2023-03-31T10:04:06;4.50;;;2.40;;
75148;SDS011;63724;47.470;19.166;2023-03-31T10:07:09;5.10;;;2.20;;
75148;SDS011;63724;47.470;19.166;2023-03-31T10:10:47;4.53;;;1.85;;
75148;SDS011;63724;47.470;19.166;2023-03-31T10:13:46;2.78;;;2.13;;
75148;SDS011;63724;47.470;19.166;2023-03-31T10:16:54;9.07;;;2.20;;
75148;SDS011;63724;47.470;19.166;2023-03-31T10:20:01;5.57;;;2.27;;
75148;SDS011;63724;47.470;19.166;2023-03-31T10:23:14;5.20;;;2.47;;
75148;SDS011;63724;47.470;19.166;2023-03-31T10:26:19;3.15;;;2.00;;
75148;SDS011;63724;47.470;19.166;2023-03-31T10:29:28;3.60;;;2.00;;
75148;SDS011;63724;47.470;19.166;2023-03-31T10:32:42;5.20;;;2.60;;
75148;SDS011;63724;47.470;19.166;2023-03-31T10:35:46;9.73;;;1.93;;
75148;SDS011;63724;47.470;19.166;2023-03-31T10:38:55;5.13;;;1.90;;
75148;SDS011;63724;47.470;19.166;2023-03-31T10:41:58;6.63;;;2.35;;
75148;SDS011;63724;47.470;19.166;2023-03-31T10:45:23;3.42;;;1.80;;
75148;SDS011;63724;47.470;19.166;2023-03-31T10:48:39;4.85;;;2.20;;
75148;SDS011;63724;47.470;19.166;2023-03-31T10:51:51;13.43;;;2.83;;
75148;SDS011;63724;47.470;19.166;2023-03-31T10:54:58;4.97;;;2.10;;
75148;SDS011;63724;47.470;19.166;2023-03-31T10:58:11;5.57;;;2.10;;
75148;SDS011;63724;47.470;19.166;2023-03-31T11:41:35;4.23;;;1.70;;
75148;SDS011;63724;47.470;19.166;2023-03-31T11:44:49;6.73;;;1.60;;
75148;SDS011;63724;47.470;19.166;2023-03-31T11:47:55;4.47;;;1.90;;
75148;SDS011;63724;47.470;19.166;2023-03-31T11:51:10;7.85;;;1.90;;
75148;SDS011;63724;47.470;19.166;2023-03-31T11:57:40;6.30;;;2.47;;
75148;SDS011;63724;47.470;19.166;2023-03-31T12:01:33;4.73;;;1.70;;
75148;SDS011;63724;47.470;19.166;2023-03-31T12:04:48;2.67;;;1.35;;
75148;SDS011;63724;47.470;19.166;2023-03-31T12:07:56;2.38;;;1.38;;
75148;SDS011;63724;47.470;19.166;2023-03-31T12:11:14;2.22;;;1.23;;
75148;SDS011;63724;47.470;19.166;2023-03-31T12:17:55;5.93;;;1.60;;
75148;SDS011;63724;47.470;19.166;2023-03-31T12:21:01;8.15;;;1.85;;
75148;SDS011;63724;47.470;19.166;2023-03-31T12:24:04;5.30;;;1.80;;
75148;SDS011;63724;47.470;19.166;2023-03-31T12:33:39;5.00;;;1.70;;
75148;SDS011;63724;47.470;19.166;2023-03-31T12:40:31;3.72;;;2.03;;
75148;SDS011;63724;47.470;19.166;2023-03-31T12:44:05;3.17;;;1.67;;
75148;SDS011;63724;47.470;19.166;2023-03-31T12:47:31;6.10;;;1.80;;
75148;SDS011;63724;47.470;19.166;2023-03-31T12:54:29;4.10;;;1.73;;
75148;SDS011;63724;47.470;19.166;2023-03-31T12:57:35;20.70;;;2.55;;
75148;SDS011;63724;47.470;19.166;2023-03-31T13:00:39;5.63;;;2.50;;
75148;SDS011;63724;47.470;19.166;2023-03-31T13:04:16;7.87;;;2.27;;
75148;SDS011;63724;47.470;19.166;2023-03-31T13:10:31;8.75;;;2.50;;
75148;SDS011;63724;47.470;19.166;2023-03-31T13:13:34;9.68;;;2.53;;
75148;SDS011;63724;47.470;19.166;2023-03-31T13:23:34;4.13;;;2.30;;
75148;SDS011;63724;47.470;19.166;2023-03-31T13:26:40;5.30;;;1.88;;
75148;SDS011;63724;47.470;19.166;2023-03-31T13:29:51;4.63;;;2.00;;
75148;SDS011;63724;47.470;19.166;2023-03-31T13:33:28;9.95;;;2.08;;
75148;SDS011;63724;47.470;19.166;2023-03-31T13:40:06;3.67;;;1.60;;
75148;SDS011;63724;47.470;19.166;2023-03-31T13:47:14;4.75;;;1.98;;
75148;SDS011;63724;47.470;19.166;2023-03-31T13:50:36;4.25;;;1.90;;
75148;SDS011;63724;47.470;19.166;2023-03-31T14:10:47;5.93;;;1.83;;
75148;SDS011;63724;47.470;19.166;2023-03-31T14:17:13;3.08;;;1.40;;
75148;SDS011;63724;47.470;19.166;2023-03-31T14:20:25;2.67;;;1.75;;
75148;SDS011;63724;47.470;19.166;2023-03-31T14:30:34;2.80;;;1.30;;
75148;SDS011;63724;47.470;19.166;2023-03-31T14:37:12;4.50;;;1.73;;
75148;SDS011;63724;47.470;19.166;2023-03-31T14:40:18;3.90;;;1.90;;
75148;SDS011;63724;47.470;19.166;2023-03-31T14:43:22;4.10;;;1.67;;
75148;SDS011;63724;47.470;19.166;2023-03-31T14:46:47;3.97;;;1.87;;
75148;SDS011;63724;47.470;19.166;2023-03-31T14:50:04;4.32;;;1.80;;
75148;SDS011;63724;47.470;19.166;2023-03-31T14:53:14;3.67;;;1.75;;
75148;SDS011;63724;47.470;19.166;2023-03-31T14:56:31;2.97;;;1.55;;
75148;SDS011;63724;47.470;19.166;2023-03-31T14:59:38;3.70;;;1.60;;
75148;SDS011;63724;47.470;19.166;2023-03-31T15:02:42;6.40;;;1.77;;
75148;SDS011;63724;47.470;19.166;2023-03-31T15:05:45;4.53;;;1.67;;
75148;SDS011;63724;47.470;19.166;2023-03-31T15:08:51;2.67;;;1.33;;
75148;SDS011;63724;47.470;19.166;2023-03-31T15:11:59;6.03;;;2.00;;
75148;SDS011;63724;47.470;19.166;2023-03-31T15:15:03;3.07;;;1.60;;
75148;SDS011;63724;47.470;19.166;2023-03-31T15:18:09;9.93;;;2.17;;
75148;SDS011;63724;47.470;19.166;2023-03-31T15:21:20;6.80;;;1.50;;
75148;SDS011;63724;47.470;19.166;2023-03-31T15:24:29;5.60;;;1.50;;
75148;SDS011;63724;47.470;19.166;2023-03-31T15:27:33;5.85;;;2.03;;
75148;SDS011;63724;47.470;19.166;2023-03-31T15:30:57;2.60;;;1.27;;
75148;SDS011;63724;47.470;19.166;2023-03-31T15:34:13;2.37;;;1.33;;
75148;SDS011;63724;47.470;19.166;2023-03-31T15:37:20;4.47;;;1.55;;
75148;SDS011;63724;47.470;19.166;2023-03-31T15:40:28;6.57;;;1.50;;
75148;SDS011;63724;47.470;19.166;2023-03-31T15:49:54;3.17;;;1.20;;
75148;SDS011;63724;47.470;19.166;2023-03-31T15:52:59;5.50;;;1.85;;
75148;SDS011;63724;47.470;19.166;2023-03-31T15:56:03;3.90;;;1.70;;
75148;SDS011;63724;47.470;19.166;2023-03-31T16:02:39;4.67;;;2.10;;
75148;SDS011;63724;47.470;19.166;2023-03-31T16:05:52;4.77;;;1.60;;
75148;SDS011;63724;47.470;19.166;2023-03-31T16:08:58;5.32;;;1.60;;
75148;SDS011;63724;47.470;19.166;2023-03-31T16:12:10;5.22;;;2.05;;
75148;SDS011;63724;47.470;19.166;2023-03-31T16:15:20;2.58;;;1.50;;
75148;SDS011;63724;47.470;19.166;2023-03-31T16:18:31;4.00;;;1.40;;
75148;SDS011;63724;47.470;19.166;2023-03-31T16:21:38;1.70;;;1.10;;
75148;SDS011;63724;47.470;19.166;2023-03-31T16:24:42;3.05;;;1.58;;
75148;SDS011;63724;47.470;19.166;2023-03-31T16:27:47;3.22;;;1.17;;
75148;SDS011;63724;47.470;19.166;2023-03-31T16:30:51;2.30;;;1.08;;
75148;SDS011;63724;47.470;19.166;2023-03-31T16:33:55;3.17;;;1.10;;
75148;SDS011;63724;47.470;19.166;2023-03-31T16:36:58;3.07;;;1.20;;
75148;SDS011;63724;47.470;19.166;2023-03-31T16:40:00;4.82;;;1.10;;
75148;SDS011;63724;47.470;19.166;2023-03-31T16:43:07;5.68;;;1.20;;
75148;SDS011;63724;47.470;19.166;2023-03-31T16:46:12;5.65;;;1.52;;
75148;SDS011;63724;47.470;19.166;2023-03-31T16:49:14;4.07;;;1.23;;
75148;SDS011;63724;47.470;19.166;2023-03-31T16:52:17;6.70;;;1.30;;
75148;SDS011;63724;47.470;19.166;2023-03-31T16:55:19;4.38;;;1.48;;
75148;SDS011;63724;47.470;19.166;2023-03-31T16:58:21;3.20;;;1.40;;
75148;SDS011;63724;47.470;19.166;2023-03-31T17:01:25;3.88;;;1.20;;
75148;SDS011;63724;47.470;19.166;2023-03-31T17:04:28;4.60;;;1.17;;
75148;SDS011;63724;47.470;19.166;2023-03-31T17:07:30;2.70;;;1.33;;
75148;SDS011;63724;47.470;19.166;2023-03-31T17:10:34;2.40;;;1.40;;
75148;SDS011;63724;47.470;19.166;2023-03-31T17:13:37;3.72;;;1.77;;
75148;SDS011;63724;47.470;19.166;2023-03-31T17:16:40;4.38;;;1.58;;
75148;SDS011;63724;47.470;19.166;2023-03-31T17:19:49;5.67;;;1.73;;
75148;SDS011;63724;47.470;19.166;2023-03-31T17:22:52;4.30;;;1.63;;
75148;SDS011;63724;47.470;19.166;2023-03-31T17:25:55;6.05;;;1.77;;
75148;SDS011;63724;47.470;19.166;2023-03-31T17:28:57;6.32;;;1.90;;
75148;SDS011;63724;47.470;19.166;2023-03-31T17:32:01;6.68;;;1.92;;
75148;SDS011;63724;47.470;19.166;2023-03-31T17:35:03;3.43;;;1.33;;
75148;SDS011;63724;47.470;19.166;2023-03-31T17:38:08;4.03;;;1.50;;
75148;SDS011;63724;47.470;19.166;2023-03-31T17:41:13;4.32;;;1.70;;
75148;SDS011;63724;47.470;19.166;2023-03-31T17:44:16;3.55;;;1.48;;
75148;SDS011;63724;47.470;19.166;2023-03-31T17:47:18;7.60;;;1.90;;
75148;SDS011;63724;47.470;19.166;2023-03-31T17:50:25;5.00;;;1.73;;
75148;SDS011;63724;47.470;19.166;2023-03-31T17:53:28;4.00;;;1.73;;
75148;SDS011;63724;47.470;19.166;2023-03-31T17:56:31;5.35;;;2.00;;
75148;SDS011;63724;47.470;19.166;2023-03-31T17:59:33;7.22;;;1.70;;
75148;SDS011;63724;47.470;19.166;2023-03-31T18:02:39;2.72;;;1.80;;
75148;SDS011;63724;47.470;19.166;2023-03-31T18:05:42;6.13;;;1.63;;
75148;SDS011;63724;47.470;19.166;2023-03-31T18:08:45;3.57;;;1.60;;
75148;SDS011;63724;47.470;19.166;2023-03-31T18:11:48;7.45;;;1.80;;
75148;SDS011;63724;47.470;19.166;2023-03-31T18:14:50;3.38;;;1.48;;
75148;SDS011;63724;47.470;19.166;2023-03-31T18:17:55;3.70;;;1.77;;
75148;SDS011;63724;47.470;19.166;2023-03-31T18:21:01;8.60;;;2.40;;
75148;SDS011;63724;47.470;19.166;2023-03-31T18:24:04;3.90;;;1.93;;
75148;SDS011;63724;47.470;19.166;2023-03-31T18:27:07;4.55;;;1.75;;
75148;SDS011;63724;47.470;19.166;2023-03-31T18:30:09;3.92;;;1.50;;
75148;SDS011;63724;47.470;19.166;2023-03-31T18:33:12;3.70;;;1.83;;
75148;SDS011;63724;47.470;19.166;2023-03-31T18:36:16;4.17;;;1.93;;
75148;SDS011;63724;47.470;19.166;2023-03-31T18:39:19;7.43;;;2.30;;
75148;SDS011;63724;47.470;19.166;2023-03-31T18:42:22;8.43;;;3.50;;
75148;SDS011;63724;47.470;19.166;2023-03-31T18:45:26;6.97;;;3.67;;
75148;SDS011;63724;47.470;19.166;2023-03-31T18:48:31;5.88;;;2.75;;
75148;SDS011;63724;47.470;19.166;2023-03-31T18:51:35;7.67;;;3.20;;
75148;SDS011;63724;47.470;19.166;2023-03-31T18:54:38;8.30;;;2.37;;
75148;SDS011;63724;47.470;19.166;2023-03-31T18:57:40;2.95;;;2.17;;
75148;SDS011;63724;47.470;19.166;2023-03-31T19:00:43;6.47;;;2.50;;
75148;SDS011;63724;47.470;19.166;2023-03-31T19:03:46;3.38;;;2.05;;
75148;SDS011;63724;47.470;19.166;2023-03-31T19:06:48;8.00;;;2.20;;
75148;SDS011;63724;47.470;19.166;2023-03-31T19:09:53;5.63;;;2.60;;
75148;SDS011;63724;47.470;19.166;2023-03-31T19:12:55;7.38;;;2.50;;
75148;SDS011;63724;47.470;19.166;2023-03-31T19:15:58;5.57;;;2.38;;
75148;SDS011;63724;47.470;19.166;2023-03-31T19:19:00;8.05;;;2.72;;
75148;SDS011;63724;47.470;19.166;2023-03-31T19:22:04;5.27;;;2.40;;
75148;SDS011;63724;47.470;19.166;2023-03-31T19:25:07;5.87;;;2.73;;
75148;SDS011;63724;47.470;19.166;2023-03-31T19:28:13;4.10;;;2.55;;
75148;SDS011;63724;47.470;19.166;2023-03-31T19:31:17;5.30;;;2.22;;
75148;SDS011;63724;47.470;19.166;2023-03-31T19:34:21;3.60;;;2.22;;
75148;SDS011;63724;47.470;19.166;2023-03-31T19:37:23;4.90;;;2.43;;
75148;SDS011;63724;47.470;19.166;2023-03-31T19:40:26;3.87;;;2.57;;
75148;SDS011;63724;47.470;19.166;2023-03-31T19:43:29;6.60;;;2.17;;
75148;SDS011;63724;47.470;19.166;2023-03-31T19:46:31;2.65;;;1.38;;
75148;SDS011;63724;47.470;19.166;2023-03-31T19:49:35;3.88;;;1.10;;
75148;SDS011;63724;47.470;19.166;2023-03-31T19:52:38;1.67;;;0.90;;
75148;SDS011;63724;47.470;19.166;2023-03-31T19:55:40;2.07;;;0.73;;
75148;SDS011;63724;47.470;19.166;2023-03-31T19:58:43;2.72;;;0.85;;
75148;SDS011;63724;47.470;19.166;2023-03-31T20:01:46;2.85;;;0.70;;
75148;SDS011;63724;47.470;19.166;2023-03-31T20:04:48;2.67;;;0.77;;
75148;SDS011;63724;47.470;19.166;2023-03-31T20:07:51;2.90;;;0.70;;
75148;SDS011;63724;47.470;19.166;2023-03-31T20:10:57;1.60;;;0.70;;
75148;SDS011;63724;47.470;19.166;2023-03-31T20:14:01;3.20;;;0.90;;
75148;SDS011;63724;47.470;19.166;2023-03-31T20:17:04;2.03;;;0.82;;
75148;SDS011;63724;47.470;19.166;2023-03-31T20:20:08;1.92;;;0.50;;
75148;SDS011;63724;47.470;19.166;2023-03-31T20:23:11;2.30;;;0.53;;
75148;SDS011;63724;47.470;19.166;2023-03-31T20:26:17;3.10;;;0.60;;
75148;SDS011;63724;47.470;19.166;2023-03-31T20:29:21;1.83;;;0.40;;
75148;SDS011;63724;47.470;19.166;2023-03-31T20:32:25;2.33;;;0.43;;
75148;SDS011;63724;47.470;19.166;2023-03-31T20:35:27;1.98;;;0.70;;
75148;SDS011;63724;47.470;19.166;2023-03-31T20:38:30;1.03;;;0.50;;
75148;SDS011;63724;47.470;19.166;2023-03-31T20:41:34;3.13;;;0.53;;
75148;SDS011;63724;47.470;19.166;2023-03-31T20:44:38;2.03;;;0.50;;
75148;SDS011;63724;47.470;19.166;2023-03-31T20:47:40;1.75;;;0.50;;
75148;SDS011;63724;47.470;19.166;2023-03-31T20:50:43;1.15;;;0.40;;
75148;SDS011;63724;47.470;19.166;2023-03-31T20:53:46;1.00;;;0.40;;
75148;SDS011;63724;47.470;19.166;2023-03-31T20:56:50;1.57;;;0.30;;
75148;SDS011;63724;47.470;19.166;2023-03-31T20:59:52;1.90;;;0.40;;
75148;SDS011;63724;47.470;19.166;2023-03-31T21:02:55;0.82;;;0.45;;
75148;SDS011;63724;47.470;19.166;2023-03-31T21:06:02;1.48;;;0.43;;
75148;SDS011;63724;47.470;19.166;2023-03-31T21:09:06;1.57;;;0.60;;
75148;SDS011;63724;47.470;19.166;2023-03-31T21:12:08;0.87;;;0.33;;
75148;SDS011;63724;47.470;19.166;2023-03-31T21:15:11;2.65;;;0.70;;
75148;SDS011;63724;47.470;19.166;2023-03-31T21:18:14;1.60;;;0.40;;
75148;SDS011;63724;47.470;19.166;2023-03-31T21:21:17;1.05;;;0.20;;
75148;SDS011;63724;47.470;19.166;2023-03-31T21:24:20;2.00;;;0.30;;
75148;SDS011;63724;47.470;19.166;2023-03-31T21:27:23;1.17;;;0.30;;
75148;SDS011;63724;47.470;19.166;2023-03-31T21:30:25;1.65;;;0.40;;